Climatologie pour Saint-Brevin les Pins
Jour • Résumé pour avril 2, 2017 Système :  Métrique    Anglais   Mixte
« - 1 jour
+ 1 jour »
Jour Semaine Mois Année Personnalisé
  Maximum : Minimum : Moyenne :
Température sous abri : 16.8 °C 7.2 °C 11.4 °C
Point de rosée : 12.0 °C 6.3 °C 8.7 °C
Humidité : 96 % 58 % 84 %
Vitesse du vent : 17.7 km/h 0.0 km/h 5.1 km/h
Rafale : 24.1 km/h - -
Direction :- - West
Pression : 1026.0 hPa 1017.2 hPa -
Précipitations : 0.0 mm    
Historical Graphs
 
 
Tableau de données pour avril 2, 2017
Heure Tempé Pt rosée Pression Vent Vitesse Rafale Humidité Taux pluie (/hr) Soleil
00:00 9.5 °C 8.6 °C 1017.2 hPa NW 1.6 km/h 9.7 km/h 94 % 0.0 mm 0 W/m2
00:10 9.7 °C 8.6 °C 1017.2 hPa NW 6.4 km/h 16.1 km/h 93 % 0.0 mm 0 W/m2
00:15 9.8 °C 8.5 °C 1017.2 hPa Calm   16.1 km/h 92 % 0.0 mm 0 W/m2
00:20 9.9 °C 8.6 °C 1017.2 hPa NW 6.4 km/h 11.3 km/h 92 % 0.0 mm 0 W/m2
00:25 9.9 °C 8.5 °C 1017.2 hPa NNW 4.8 km/h 11.3 km/h 91 % 0.0 mm 0 W/m2
00:30 9.9 °C 8.5 °C 1017.5 hPa NW 1.6 km/h 11.3 km/h 91 % 0.0 mm 0 W/m2
00:35 9.9 °C 8.5 °C 1017.5 hPa NW 6.4 km/h 11.3 km/h 91 % 0.0 mm 0 W/m2
00:40 10.0 °C 8.4 °C 1017.5 hPa Calm   11.3 km/h 90 % 0.0 mm 0 W/m2
00:45 10.0 °C 8.4 °C 1017.5 hPa NW 4.8 km/h 11.3 km/h 90 % 0.0 mm 0 W/m2
00:50 9.9 °C 8.2 °C 1017.5 hPa WNW 3.2 km/h 11.3 km/h 89 % 0.0 mm 0 W/m2
01:00 10.0 °C 8.4 °C 1017.5 hPa NNW 8.0 km/h 14.5 km/h 90 % 0.0 mm 0 W/m2
01:10 10.2 °C 8.3 °C 1017.5 hPa NW 9.7 km/h 17.7 km/h 88 % 0.0 mm 0 W/m2
01:15 10.3 °C 8.4 °C 1017.5 hPa NW 4.8 km/h 17.7 km/h 88 % 0.0 mm 0 W/m2
01:20 10.3 °C 8.3 °C 1017.5 hPa NW 4.8 km/h 19.3 km/h 87 % 0.0 mm 0 W/m2
01:25 10.3 °C 8.2 °C 1017.5 hPa NW 3.2 km/h 19.3 km/h 87 % 0.0 mm 0 W/m2
01:30 10.2 °C 8.1 °C 1017.5 hPa WNW 8.0 km/h 16.1 km/h 87 % 0.0 mm 0 W/m2
01:35 10.1 °C 8.2 °C 1017.5 hPa NNW 4.8 km/h 19.3 km/h 88 % 0.0 mm 0 W/m2
01:40 10.1 °C 8.2 °C 1017.5 hPa WNW 3.2 km/h 19.3 km/h 88 % 0.0 mm 0 W/m2
01:45 10.2 °C 8.3 °C 1017.8 hPa NW 14.5 km/h 19.3 km/h 88 % 0.0 mm 0 W/m2
01:50 10.2 °C 8.3 °C 1017.8 hPa NW 9.7 km/h 19.3 km/h 88 % 0.0 mm 0 W/m2
01:55 10.2 °C 8.2 °C 1017.8 hPa NW 4.8 km/h 19.3 km/h 87 % 0.0 mm 0 W/m2
02:00 10.3 °C 8.2 °C 1017.8 hPa NW 6.4 km/h 14.5 km/h 87 % 0.0 mm 0 W/m2
02:05 10.3 °C 8.3 °C 1017.5 hPa NW 6.4 km/h 16.1 km/h 87 % 0.0 mm 0 W/m2
02:10 10.3 °C 8.3 °C 1017.5 hPa NW 6.4 km/h 16.1 km/h 87 % 0.0 mm 0 W/m2
02:20 10.3 °C 8.3 °C 1017.8 hPa NNW 8.0 km/h 14.5 km/h 87 % 0.0 mm 0 W/m2
02:25 10.4 °C 8.1 °C 1017.8 hPa NW 4.8 km/h 19.3 km/h 86 % 0.0 mm 0 W/m2
02:30 10.4 °C 8.1 °C 1017.8 hPa WNW 14.5 km/h 24.1 km/h 86 % 0.0 mm 0 W/m2
02:35 10.4 °C 8.1 °C 1017.8 hPa NW 14.5 km/h 24.1 km/h 86 % 0.0 mm 0 W/m2
02:40 10.4 °C 8.2 °C 1017.8 hPa WNW 3.2 km/h 20.9 km/h 86 % 0.0 mm 0 W/m2
02:45 10.4 °C 8.1 °C 1017.8 hPa NW 8.0 km/h 19.3 km/h 86 % 0.0 mm 0 W/m2
02:50 10.3 °C 8.1 °C 1017.8 hPa NW 3.2 km/h 17.7 km/h 86 % 0.0 mm 0 W/m2
02:55 10.3 °C 8.0 °C 1017.8 hPa NW 9.7 km/h 17.7 km/h 86 % 0.0 mm 0 W/m2
03:00 10.2 °C 8.0 °C 1017.8 hPa WNW 8.0 km/h 16.1 km/h 86 % 0.0 mm 0 W/m2
03:05 10.1 °C 8.0 °C 1017.8 hPa NW 1.6 km/h 17.7 km/h 87 % 0.0 mm 0 W/m2
03:10 10.1 °C 8.2 °C 1018.2 hPa NW 4.8 km/h 19.3 km/h 88 % 0.0 mm 0 W/m2
03:15 10.1 °C 8.0 °C 1017.8 hPa NNW 8.0 km/h 24.1 km/h 87 % 0.0 mm 0 W/m2
03:20 10.1 °C 8.0 °C 1017.8 hPa NW 8.0 km/h 24.1 km/h 87 % 0.0 mm 0 W/m2
03:25 10.0 °C 8.1 °C 1017.8 hPa NNW 4.8 km/h 20.9 km/h 88 % 0.0 mm 0 W/m2
03:30 9.9 °C 8.0 °C 1017.8 hPa West 12.9 km/h 20.9 km/h 88 % 0.0 mm 0 W/m2
03:35 9.7 °C 7.8 °C 1017.8 hPa NNW 4.8 km/h 19.3 km/h 88 % 0.0 mm 0 W/m2
03:40 9.4 °C 7.5 °C 1017.8 hPa NNW 6.4 km/h 17.7 km/h 88 % 0.0 mm 0 W/m2
03:45 9.1 °C 7.5 °C 1017.8 hPa North 9.7 km/h 17.7 km/h 90 % 0.0 mm 0 W/m2
03:50 8.8 °C 7.3 °C 1018.2 hPa NNW 3.2 km/h 12.9 km/h 90 % 0.0 mm 0 W/m2
03:55 8.8 °C 7.4 °C 1018.2 hPa NW 12.9 km/h 16.1 km/h 91 % 0.0 mm 0 W/m2
04:00 8.7 °C 7.3 °C 1018.2 hPa NNW 4.8 km/h 16.1 km/h 91 % 0.0 mm 0 W/m2
04:05 8.7 °C 7.4 °C 1018.2 hPa NW 3.2 km/h 20.9 km/h 92 % 0.0 mm 0 W/m2
04:10 8.7 °C 7.4 °C 1018.2 hPa WNW 8.0 km/h 20.9 km/h 92 % 0.0 mm 0 W/m2
04:15 8.8 °C 7.5 °C 1018.2 hPa WNW 6.4 km/h 16.1 km/h 92 % 0.0 mm 0 W/m2
04:20 8.9 °C 7.7 °C 1018.2 hPa NW 1.6 km/h 16.1 km/h 92 % 0.0 mm 0 W/m2
04:25 9.2 °C 7.9 °C 1018.2 hPa WNW 4.8 km/h 12.9 km/h 92 % 0.0 mm 0 W/m2
04:35 9.4 °C 8.2 °C 1018.2 hPa Calm   14.5 km/h 92 % 0.0 mm 0 W/m2
04:40 9.4 °C 8.2 °C 1018.2 hPa NW 3.2 km/h 14.5 km/h 92 % 0.0 mm 0 W/m2
04:45 9.4 °C 8.2 °C 1018.2 hPa NNW 1.6 km/h 14.5 km/h 92 % 0.0 mm 0 W/m2
04:50 9.6 °C 8.3 °C 1018.2 hPa NW 6.4 km/h 12.9 km/h 92 % 0.0 mm 0 W/m2
04:55 9.5 °C 8.3 °C 1018.2 hPa NW 6.4 km/h 19.3 km/h 92 % 0.0 mm 0 W/m2
05:00 9.5 °C 8.3 °C 1018.2 hPa NNE 8.0 km/h 19.3 km/h 92 % 0.0 mm 0 W/m2
05:05 9.5 °C 8.3 °C 1018.2 hPa North 6.4 km/h 16.1 km/h 92 % 0.0 mm 0 W/m2
05:10 9.5 °C 8.3 °C 1018.5 hPa NW 4.8 km/h 17.7 km/h 92 % 0.0 mm 0 W/m2
05:15 9.4 °C 8.2 °C 1018.5 hPa WNW 6.4 km/h 17.7 km/h 92 % 0.0 mm 0 W/m2
05:20 9.4 °C 8.2 °C 1018.5 hPa North 11.3 km/h 14.5 km/h 92 % 0.0 mm 0 W/m2
05:25 9.4 °C 8.2 °C 1018.5 hPa NNW 8.0 km/h 14.5 km/h 92 % 0.0 mm 0 W/m2
05:30 9.4 °C 8.2 °C 1018.5 hPa Calm   16.1 km/h 92 % 0.0 mm 0 W/m2
05:35 9.4 °C 8.2 °C 1018.5 hPa NNW 3.2 km/h 16.1 km/h 92 % 0.0 mm 0 W/m2
05:40 9.3 °C 8.1 °C 1018.5 hPa NNW 6.4 km/h 14.5 km/h 92 % 0.0 mm 0 W/m2
05:45 9.3 °C 8.1 °C 1018.5 hPa NW 1.6 km/h 19.3 km/h 92 % 0.0 mm 0 W/m2
05:55 9.2 °C 7.9 °C 1018.5 hPa Calm   16.1 km/h 92 % 0.0 mm 0 W/m2
06:00 9.2 °C 7.9 °C 1018.8 hPa NNW 9.7 km/h 14.5 km/h 92 % 0.0 mm 0 W/m2
06:05 9.1 °C 8.0 °C 1018.8 hPa NW 3.2 km/h 16.1 km/h 93 % 0.0 mm 0 W/m2
06:10 9.2 °C 7.9 °C 1018.8 hPa Calm   16.1 km/h 92 % 0.0 mm 0 W/m2
06:15 9.1 °C 8.0 °C 1018.8 hPa NW 1.6 km/h 16.1 km/h 93 % 0.0 mm 0 W/m2
06:20 9.1 °C 8.0 °C 1018.8 hPa NW 6.4 km/h 11.3 km/h 93 % 0.0 mm 0 W/m2
06:25 9.1 °C 8.0 °C 1018.8 hPa North 1.6 km/h 12.9 km/h 93 % 0.0 mm 0 W/m2
06:30 8.9 °C 7.9 °C 1018.8 hPa NW 8.0 km/h 17.7 km/h 93 % 0.0 mm 0 W/m2
06:35 8.8 °C 7.5 °C 1018.8 hPa NNW 3.2 km/h 17.7 km/h 92 % 0.0 mm 0 W/m2
06:45 8.6 °C 7.5 °C 1019.2 hPa NW 3.2 km/h 14.5 km/h 93 % 0.0 mm 0 W/m2
06:50 8.4 °C 7.4 °C 1019.2 hPa NNW 8.0 km/h 14.5 km/h 93 % 0.0 mm 0 W/m2
06:55 8.3 °C 7.4 °C 1019.2 hPa NNW 6.4 km/h 14.5 km/h 94 % 0.0 mm 0 W/m2
07:00 8.4 °C 7.5 °C 1019.2 hPa North 6.4 km/h 16.1 km/h 94 % 0.0 mm 0 W/m2
07:05 8.3 °C 7.4 °C 1019.5 hPa NNW 1.6 km/h 16.1 km/h 94 % 0.0 mm 0 W/m2
07:10 8.2 °C 7.3 °C 1019.5 hPa North 1.6 km/h 11.3 km/h 94 % 0.0 mm 0 W/m2
07:15 8.2 °C 7.3 °C 1019.5 hPa North 9.7 km/h 11.3 km/h 94 % 0.0 mm 0 W/m2
07:20 8.2 °C 7.3 °C 1019.5 hPa NW 8.0 km/h 14.5 km/h 94 % 0.0 mm 0 W/m2
07:25 8.1 °C 7.1 °C 1019.9 hPa NNW 8.0 km/h 14.5 km/h 94 % 0.0 mm 0 W/m2
07:30 8.0 °C 7.2 °C 1019.9 hPa NNW 9.7 km/h 14.5 km/h 95 % 0.0 mm 0 W/m2
07:35 7.9 °C 7.2 °C 1019.9 hPa NNW 11.3 km/h 14.5 km/h 95 % 0.0 mm 0 W/m2
07:40 7.8 °C 6.9 °C 1019.9 hPa Calm   11.3 km/h 94 % 0.0 mm 0 W/m2
07:45 7.7 °C 6.8 °C 1019.9 hPa NNW 6.4 km/h 11.3 km/h 94 % 0.0 mm 0 W/m2
07:50 7.7 °C 6.9 °C 1019.9 hPa NW 3.2 km/h 11.3 km/h 95 % 0.0 mm 5 W/m2
07:55 7.7 °C 6.9 °C 1020.2 hPa NW 1.6 km/h 14.5 km/h 95 % 0.0 mm 7 W/m2
08:00 7.5 °C 6.8 °C 1020.2 hPa NNW 1.6 km/h 14.5 km/h 95 % 0.0 mm 9 W/m2
08:05 7.6 °C 6.8 °C 1020.2 hPa Calm   11.3 km/h 95 % 0.0 mm 12 W/m2
08:10 7.6 °C 6.8 °C 1020.5 hPa NW 9.7 km/h 11.3 km/h 95 % 0.0 mm 14 W/m2
08:15 7.5 °C 6.8 °C 1020.5 hPa NNW 1.6 km/h 11.3 km/h 95 % 0.0 mm 19 W/m2
08:20 7.6 °C 6.8 °C 1020.5 hPa Calm   11.3 km/h 95 % 0.0 mm 25 W/m2
08:25 7.7 °C 7.1 °C 1020.5 hPa NNW 9.7 km/h 11.3 km/h 96 % 0.0 mm 25 W/m2
08:30 7.7 °C 7.1 °C 1020.5 hPa NW 6.4 km/h 11.3 km/h 96 % 0.0 mm 26 W/m2
08:35 7.9 °C 7.3 °C 1020.9 hPa NNW 1.6 km/h 9.7 km/h 96 % 0.0 mm 54 W/m2
08:40 8.1 °C 7.3 °C 1020.5 hPa NNW 4.8 km/h 12.9 km/h 95 % 0.0 mm 91 W/m2
08:45 8.2 °C 7.6 °C 1020.9 hPa NW 6.4 km/h 12.9 km/h 96 % 0.0 mm 102 W/m2
08:50 8.4 °C 7.6 °C 1020.9 hPa NNW 6.4 km/h 12.9 km/h 95 % 0.0 mm 118 W/m2
08:55 8.5 °C 7.7 °C 1020.9 hPa NW 3.2 km/h 12.9 km/h 95 % 0.0 mm 135 W/m2
09:00 8.7 °C 7.9 °C 1021.2 hPa North 6.4 km/h 14.5 km/h 95 % 0.0 mm 151 W/m2
09:05 8.8 °C 7.9 °C 1021.2 hPa NNW 3.2 km/h 14.5 km/h 94 % 0.0 mm 169 W/m2
09:10 9.0 °C 8.1 °C 1021.2 hPa NNW 6.4 km/h 14.5 km/h 94 % 0.0 mm 186 W/m2
09:15 9.2 °C 8.1 °C 1021.2 hPa NNW 3.2 km/h 14.5 km/h 93 % 0.0 mm 206 W/m2
09:20 9.4 °C 8.3 °C 1021.2 hPa WNW 8.0 km/h 14.5 km/h 93 % 0.0 mm 216 W/m2
09:25 9.7 °C 8.4 °C 1021.2 hPa NNW 9.7 km/h 12.9 km/h 92 % 0.0 mm 237 W/m2
09:30 9.9 °C 8.7 °C 1021.2 hPa NW 4.8 km/h 12.9 km/h 92 % 0.0 mm 253 W/m2
09:35 10.1 °C 8.7 °C 1021.6 hPa WNW 6.4 km/h 14.5 km/h 91 % 0.0 mm 267 W/m2
09:40 10.3 °C 8.9 °C 1021.6 hPa Calm   16.1 km/h 91 % 0.0 mm 283 W/m2
09:45 10.6 °C 9.0 °C 1021.6 hPa North 11.3 km/h 16.1 km/h 90 % 0.0 mm 297 W/m2
09:50 10.6 °C 8.8 °C 1021.6 hPa NNW 9.7 km/h 14.5 km/h 89 % 0.0 mm 313 W/m2
09:55 10.9 °C 9.1 °C 1021.6 hPa NW 17.7 km/h 19.3 km/h 89 % 0.0 mm 329 W/m2
10:00 10.9 °C 8.9 °C 1021.6 hPa NW 6.4 km/h 19.3 km/h 87 % 0.0 mm 339 W/m2
10:10 11.2 °C 9.0 °C 1021.6 hPa NW 9.7 km/h 17.7 km/h 86 % 0.0 mm 376 W/m2
10:15 11.6 °C 9.1 °C 1021.6 hPa North 9.7 km/h 16.1 km/h 85 % 0.0 mm 385 W/m2
10:20 11.7 °C 9.3 °C 1021.9 hPa North 8.0 km/h 16.1 km/h 85 % 0.0 mm 404 W/m2
10:25 11.9 °C 9.5 °C 1021.9 hPa NW 3.2 km/h 16.1 km/h 85 % 0.0 mm 417 W/m2
10:30 12.1 °C 9.6 °C 1021.9 hPa NNW 4.8 km/h 16.1 km/h 85 % 0.0 mm 431 W/m2
10:35 12.3 °C 9.7 °C 1021.9 hPa NNW 6.4 km/h 16.1 km/h 84 % 0.0 mm 445 W/m2
10:40 12.3 °C 9.3 °C 1021.9 hPa North 11.3 km/h 16.1 km/h 82 % 0.0 mm 466 W/m2
10:45 12.3 °C 9.2 °C 1021.9 hPa NNW 11.3 km/h 20.9 km/h 81 % 0.0 mm 424 W/m2
10:50 12.6 °C 9.1 °C 1022.2 hPa NW 6.4 km/h 20.9 km/h 80 % 0.0 mm 552 W/m2
10:55 12.9 °C 10.3 °C 1022.2 hPa NNW 6.4 km/h 19.3 km/h 84 % 0.0 mm 601 W/m2
11:00 13.2 °C 9.7 °C 1022.2 hPa North 9.7 km/h 19.3 km/h 79 % 0.0 mm 659 W/m2
11:05 13.2 °C 9.6 °C 1022.2 hPa WNW 9.7 km/h 19.3 km/h 79 % 0.0 mm 229 W/m2
11:10 12.9 °C 9.3 °C 1022.2 hPa NNE 6.4 km/h 19.3 km/h 79 % 0.0 mm 332 W/m2
11:15 12.5 °C 9.0 °C 1022.2 hPa North 3.2 km/h 16.1 km/h 79 % 0.0 mm 290 W/m2
11:20 13.1 °C 9.9 °C 1022.2 hPa NNW 9.7 km/h 14.5 km/h 81 % 0.0 mm 322 W/m2
11:25 13.2 °C 9.8 °C 1022.2 hPa North 11.3 km/h 12.9 km/h 80 % 0.0 mm 241 W/m2
11:30 12.9 °C 9.5 °C 1022.2 hPa NNE 8.0 km/h 12.9 km/h 80 % 0.0 mm 411 W/m2
11:35 13.1 °C 9.5 °C 1022.2 hPa North 9.7 km/h 14.5 km/h 79 % 0.0 mm 229 W/m2
11:40 13.0 °C 9.4 °C 1022.6 hPa North 6.4 km/h 14.5 km/h 79 % 0.0 mm 292 W/m2
11:45 13.3 °C 9.6 °C 1022.6 hPa NE 11.3 km/h 12.9 km/h 78 % 0.0 mm 230 W/m2
11:50 12.9 °C 9.0 °C 1022.6 hPa NE 9.7 km/h 14.5 km/h 77 % 0.0 mm 299 W/m2
11:55 13.8 °C 10.3 °C 1022.6 hPa NE 11.3 km/h 14.5 km/h 79 % 0.0 mm 823 W/m2
12:00 13.9 °C 10.0 °C 1022.6 hPa Calm   12.9 km/h 77 % 0.0 mm 817 W/m2
12:05 14.7 °C 10.3 °C 1022.6 hPa NE 12.9 km/h 14.5 km/h 75 % 0.0 mm 947 W/m2
12:10 14.1 °C 9.1 °C 1022.6 hPa NNE 4.8 km/h 14.5 km/h 72 % 0.0 mm 227 W/m2
12:15 13.4 °C 9.3 °C 1022.6 hPa NNE 4.8 km/h 14.5 km/h 76 % 0.0 mm 160 W/m2
12:20 13.3 °C 9.4 °C 1022.6 hPa NNW 8.0 km/h 12.9 km/h 77 % 0.0 mm 193 W/m2
12:30 12.9 °C 8.8 °C 1022.6 hPa North 3.2 km/h 11.3 km/h 76 % 0.0 mm 251 W/m2
12:35 14.3 °C 10.1 °C 1022.6 hPa NNE 6.4 km/h 14.5 km/h 76 % 0.0 mm 842 W/m2
12:40 14.8 °C 9.4 °C 1022.6 hPa North 1.6 km/h 16.1 km/h 70 % 0.0 mm 974 W/m2
12:45 15.4 °C 9.8 °C 1022.6 hPa North 8.0 km/h 17.7 km/h 69 % 0.0 mm 649 W/m2
12:50 15.4 °C 10.2 °C 1022.6 hPa NE 9.7 km/h 20.9 km/h 71 % 0.0 mm 330 W/m2
12:55 15.7 °C 9.6 °C 1022.9 hPa NNW 6.4 km/h 20.9 km/h 67 % 0.0 mm 255 W/m2
13:00 14.6 °C 9.4 °C 1022.9 hPa NE 9.7 km/h 14.5 km/h 71 % 0.0 mm 295 W/m2
13:05 14.2 °C 9.0 °C 1022.9 hPa ENE 6.4 km/h 14.5 km/h 71 % 0.0 mm 223 W/m2
13:10 14.0 °C 9.0 °C 1022.9 hPa NNE 4.8 km/h 11.3 km/h 72 % 0.0 mm 301 W/m2
13:15 15.3 °C 10.1 °C 1022.6 hPa North 6.4 km/h 12.9 km/h 71 % 0.0 mm 995 W/m2
13:20 15.4 °C 9.3 °C 1022.6 hPa NE 6.4 km/h 12.9 km/h 67 % 0.0 mm 366 W/m2
13:25 14.8 °C 8.8 °C 1022.6 hPa ENE 3.2 km/h 17.7 km/h 67 % 0.0 mm 359 W/m2
13:35 15.1 °C 9.2 °C 1022.6 hPa NE 4.8 km/h 16.1 km/h 68 % 0.0 mm 527 W/m2
13:40 15.6 °C 9.7 °C 1022.6 hPa NE 4.8 km/h 16.1 km/h 68 % 0.0 mm 930 W/m2
13:45 16.8 °C 9.9 °C 1022.6 hPa ENE 8.0 km/h 14.5 km/h 64 % 0.0 mm 965 W/m2
13:50 16.4 °C 9.1 °C 1022.6 hPa NE 3.2 km/h 14.5 km/h 62 % 0.0 mm 1011 W/m2
13:55 16.0 °C 9.6 °C 1022.6 hPa Calm   14.5 km/h 66 % 0.0 mm 357 W/m2
14:00 15.5 °C 9.2 °C 1022.6 hPa North 6.4 km/h 14.5 km/h 66 % 0.0 mm 211 W/m2
14:05 15.1 °C 9.2 °C 1022.6 hPa NNE 8.0 km/h 9.7 km/h 68 % 0.0 mm 178 W/m2
14:10 14.7 °C 8.4 °C 1022.9 hPa ENE 3.2 km/h 11.3 km/h 66 % 0.0 mm 206 W/m2
14:15 14.5 °C 8.7 °C 1022.9 hPa ENE 1.6 km/h 11.3 km/h 68 % 0.0 mm 243 W/m2
14:20 14.9 °C 9.9 °C 1022.9 hPa NE 8.0 km/h 9.7 km/h 72 % 0.0 mm 951 W/m2
14:25 16.2 °C 10.0 °C 1022.9 hPa North 6.4 km/h 12.9 km/h 67 % 0.0 mm 1023 W/m2
14:30 16.0 °C 9.2 °C 1022.6 hPa Calm   12.9 km/h 64 % 0.0 mm 1023 W/m2
14:35 15.6 °C 8.3 °C 1022.6 hPa North 1.6 km/h 8.0 km/h 62 % 0.0 mm 221 W/m2
14:40 15.3 °C 9.6 °C 1022.9 hPa NNE 3.2 km/h 8.0 km/h 69 % 0.0 mm 185 W/m2
14:45 14.8 °C 8.3 °C 1022.9 hPa NE 8.0 km/h 11.3 km/h 65 % 0.0 mm 160 W/m2
14:50 14.5 °C 8.2 °C 1022.9 hPa North 3.2 km/h 11.3 km/h 66 % 0.0 mm 165 W/m2
14:55 15.7 °C 9.8 °C 1022.6 hPa NE 11.3 km/h 11.3 km/h 68 % 0.0 mm 874 W/m2
15:05 16.8 °C 8.5 °C 1022.6 hPa Calm   12.9 km/h 58 % 0.0 mm 482 W/m2
15:10 16.1 °C 9.9 °C 1022.6 hPa NW 8.0 km/h 14.5 km/h 67 % 0.0 mm 214 W/m2
15:15 14.7 °C 9.3 °C 1022.6 hPa WNW 3.2 km/h 14.5 km/h 70 % 0.0 mm 165 W/m2
15:20 14.3 °C 8.7 °C 1022.9 hPa NNW 4.8 km/h 14.5 km/h 69 % 0.0 mm 179 W/m2
15:25 14.1 °C 8.7 °C 1022.9 hPa WSW 1.6 km/h 14.5 km/h 70 % 0.0 mm 230 W/m2
15:30 14.5 °C 9.3 °C 1022.9 hPa WNW 3.2 km/h 8.0 km/h 71 % 0.0 mm 258 W/m2
15:35 15.1 °C 9.7 °C 1022.9 hPa NW 4.8 km/h 11.3 km/h 70 % 0.0 mm 452 W/m2
15:45 15.3 °C 9.2 °C 1022.9 hPa NW 9.7 km/h 14.5 km/h 67 % 0.0 mm 141 W/m2
15:50 14.5 °C 9.3 °C 1022.9 hPa WNW 8.0 km/h 14.5 km/h 71 % 0.0 mm 123 W/m2
15:55 14.1 °C 9.5 °C 1022.9 hPa West 9.7 km/h 14.5 km/h 74 % 0.0 mm 190 W/m2
16:00 13.9 °C 10.0 °C 1022.9 hPa West 12.9 km/h 14.5 km/h 77 % 0.0 mm 207 W/m2
16:05 13.9 °C 9.9 °C 1022.9 hPa WNW 6.4 km/h 17.7 km/h 77 % 0.0 mm 209 W/m2
16:10 14.1 °C 10.3 °C 1022.9 hPa West 8.0 km/h 17.7 km/h 78 % 0.0 mm 904 W/m2
16:15 15.8 °C 11.6 °C 1022.9 hPa WNW 8.0 km/h 12.9 km/h 76 % 0.0 mm 346 W/m2
16:20 15.1 °C 9.8 °C 1022.9 hPa WSW 4.8 km/h 14.5 km/h 71 % 0.0 mm 288 W/m2
16:25 14.7 °C 10.3 °C 1022.9 hPa WNW 12.9 km/h 14.5 km/h 75 % 0.0 mm 258 W/m2
16:30 14.3 °C 10.4 °C 1022.9 hPa WSW 6.4 km/h 17.7 km/h 77 % 0.0 mm 278 W/m2
16:35 14.3 °C 10.2 °C 1022.9 hPa WNW 11.3 km/h 19.3 km/h 76 % 0.0 mm 350 W/m2
16:40 14.4 °C 10.4 °C 1022.9 hPa WNW 9.7 km/h 19.3 km/h 77 % 0.0 mm 248 W/m2
16:45 14.9 °C 11.5 °C 1022.9 hPa West 9.7 km/h 16.1 km/h 80 % 0.0 mm 661 W/m2
16:50 15.7 °C 12.0 °C 1022.9 hPa WNW 4.8 km/h 16.1 km/h 79 % 0.0 mm 708 W/m2
16:55 15.3 °C 10.3 °C 1022.9 hPa West 8.0 km/h 16.1 km/h 72 % 0.0 mm 253 W/m2
17:00 14.8 °C 10.0 °C 1022.9 hPa West 3.2 km/h 16.1 km/h 73 % 0.0 mm 116 W/m2
17:05 14.4 °C 9.8 °C 1022.9 hPa West 9.7 km/h 14.5 km/h 74 % 0.0 mm 90 W/m2
17:10 14.2 °C 10.2 °C 1022.9 hPa NW 8.0 km/h 14.5 km/h 77 % 0.0 mm 107 W/m2
17:15 14.0 °C 10.4 °C 1022.9 hPa NW 6.4 km/h 12.9 km/h 79 % 0.0 mm 156 W/m2
17:20 14.1 °C 10.7 °C 1022.9 hPa WNW 9.7 km/h 12.9 km/h 80 % 0.0 mm 178 W/m2
17:25 14.3 °C 10.4 °C 1022.9 hPa West 3.2 km/h 12.9 km/h 77 % 0.0 mm 207 W/m2
17:30 14.5 °C 10.5 °C 1022.9 hPa West 9.7 km/h 12.9 km/h 77 % 0.0 mm 234 W/m2
17:35 14.9 °C 10.9 °C 1022.9 hPa SW 4.8 km/h 11.3 km/h 77 % 0.0 mm 223 W/m2
17:40 15.0 °C 10.4 °C 1022.9 hPa Calm   12.9 km/h 74 % 0.0 mm 139 W/m2
17:50 14.4 °C 10.8 °C 1022.9 hPa WSW 1.6 km/h 12.9 km/h 79 % 0.0 mm 193 W/m2
17:55 15.1 °C 11.5 °C 1022.9 hPa NNW 8.0 km/h 12.9 km/h 79 % 0.0 mm 341 W/m2
18:05 15.7 °C 11.3 °C 1022.9 hPa WSW 4.8 km/h 12.9 km/h 75 % 0.0 mm 332 W/m2
18:10 15.9 °C 10.6 °C 1022.9 hPa WSW 11.3 km/h 14.5 km/h 71 % 0.0 mm 396 W/m2
18:20 16.1 °C 11.0 °C 1022.9 hPa Calm   16.1 km/h 72 % 0.0 mm 508 W/m2
18:25 16.5 °C 11.0 °C 1022.9 hPa West 6.4 km/h 16.1 km/h 70 % 0.0 mm 454 W/m2
18:30 16.1 °C 10.8 °C 1023.2 hPa WSW 4.8 km/h 14.5 km/h 71 % 0.0 mm 362 W/m2
18:40 15.1 °C 10.5 °C 1023.2 hPa West 1.6 km/h 20.9 km/h 74 % 0.0 mm 51 W/m2
18:45 14.7 °C 10.3 °C 1023.2 hPa NNW 6.4 km/h 11.3 km/h 75 % 0.0 mm 42 W/m2
18:50 14.3 °C 10.2 °C 1023.2 hPa NNW 4.8 km/h 9.7 km/h 76 % 0.0 mm 51 W/m2
18:55 14.3 °C 10.0 °C 1023.2 hPa North 8.0 km/h 9.7 km/h 75 % 0.0 mm 72 W/m2
19:00 14.2 °C 10.0 °C 1023.2 hPa West 4.8 km/h 11.3 km/h 76 % 0.0 mm 81 W/m2
19:05 14.2 °C 10.2 °C 1023.6 hPa WSW 3.2 km/h 11.3 km/h 77 % 0.0 mm 83 W/m2
19:10 14.2 °C 10.4 °C 1023.6 hPa Calm   9.7 km/h 78 % 0.0 mm 79 W/m2
19:15 14.1 °C 9.9 °C 1023.6 hPa West 3.2 km/h 9.7 km/h 76 % 0.0 mm 72 W/m2
19:20 13.9 °C 10.0 °C 1023.6 hPa West 8.0 km/h 12.9 km/h 77 % 0.0 mm 70 W/m2
19:25 13.8 °C 9.9 °C 1023.6 hPa West 11.3 km/h 12.9 km/h 77 % 0.0 mm 62 W/m2
19:30 13.7 °C 10.0 °C 1023.6 hPa NW 8.0 km/h 12.9 km/h 78 % 0.0 mm 63 W/m2
19:35 13.7 °C 10.1 °C 1023.6 hPa WSW 3.2 km/h 12.9 km/h 79 % 0.0 mm 56 W/m2
19:40 13.6 °C 10.2 °C 1023.9 hPa WNW 3.2 km/h 11.3 km/h 80 % 0.0 mm 49 W/m2
19:45 13.4 °C 10.0 °C 1023.9 hPa WSW 6.4 km/h 9.7 km/h 80 % 0.0 mm 40 W/m2
19:50 13.3 °C 10.0 °C 1023.9 hPa NW 8.0 km/h 11.3 km/h 80 % 0.0 mm 28 W/m2
19:55 13.2 °C 10.0 °C 1023.9 hPa West 4.8 km/h 11.3 km/h 81 % 0.0 mm 23 W/m2
20:00 13.1 °C 9.7 °C 1023.9 hPa West 3.2 km/h 9.7 km/h 80 % 0.0 mm 21 W/m2
20:05 13.1 °C 9.7 °C 1023.9 hPa West 1.6 km/h 8.0 km/h 80 % 0.0 mm 19 W/m2
20:10 13.1 °C 9.9 °C 1023.9 hPa WNW 4.8 km/h 8.0 km/h 81 % 0.0 mm 19 W/m2
20:15 12.9 °C 9.9 °C 1023.9 hPa Calm   8.0 km/h 82 % 0.0 mm 18 W/m2
20:20 12.9 °C 9.9 °C 1023.9 hPa West 4.8 km/h 9.7 km/h 82 % 0.0 mm 14 W/m2
20:25 12.9 °C 9.9 °C 1023.9 hPa WNW 4.8 km/h 9.7 km/h 82 % 0.0 mm 12 W/m2
20:30 12.9 °C 9.8 °C 1023.9 hPa NNW 6.4 km/h 11.3 km/h 81 % 0.0 mm 5 W/m2
20:35 12.9 °C 9.8 °C 1023.9 hPa WNW 4.8 km/h 11.3 km/h 81 % 0.0 mm 0 W/m2
20:40 12.8 °C 9.7 °C 1024.3 hPa WNW 1.6 km/h 9.7 km/h 81 % 0.0 mm 0 W/m2
20:45 12.7 °C 9.5 °C 1024.3 hPa WNW 3.2 km/h 8.0 km/h 81 % 0.0 mm 0 W/m2
20:50 12.5 °C 9.3 °C 1024.3 hPa WNW 3.2 km/h 8.0 km/h 81 % 0.0 mm 0 W/m2
20:55 12.3 °C 9.3 °C 1024.3 hPa NW 3.2 km/h 11.3 km/h 82 % 0.0 mm 0 W/m2
21:00 12.0 °C 9.4 °C 1024.3 hPa NW 3.2 km/h 11.3 km/h 84 % 0.0 mm 0 W/m2
21:05 11.4 °C 9.2 °C 1024.3 hPa Calm   4.8 km/h 86 % 0.0 mm 0 W/m2
21:10 11.1 °C 9.0 °C 1024.3 hPa Calm   4.8 km/h 87 % 0.0 mm 0 W/m2
21:15 10.8 °C 8.9 °C 1024.6 hPa Calm   1.6 km/h 88 % 0.0 mm 0 W/m2
21:20 10.6 °C 8.9 °C 1024.6 hPa Calm     89 % 0.0 mm 0 W/m2
21:25 10.4 °C 8.7 °C 1024.6 hPa Calm     89 % 0.0 mm 0 W/m2
21:30 10.2 °C 8.5 °C 1024.6 hPa Calm   1.6 km/h 89 % 0.0 mm 0 W/m2
21:35 9.9 °C 8.4 °C 1024.6 hPa Calm   1.6 km/h 90 % 0.0 mm 0 W/m2
21:40 9.8 °C 8.3 °C 1024.6 hPa Calm     90 % 0.0 mm 0 W/m2
21:45 9.6 °C 8.2 °C 1024.9 hPa Calm     91 % 0.0 mm 0 W/m2
21:50 9.4 °C 8.0 °C 1024.9 hPa Calm     91 % 0.0 mm 0 W/m2
21:55 9.2 °C 7.8 °C 1024.9 hPa Calm     91 % 0.0 mm 0 W/m2
22:00 9.1 °C 7.8 °C 1024.9 hPa Calm     92 % 0.0 mm 0 W/m2
22:05 9.0 °C 7.8 °C 1024.9 hPa Calm     92 % 0.0 mm 0 W/m2
22:10 9.0 °C 7.8 °C 1025.3 hPa Calm   1.6 km/h 92 % 0.0 mm 0 W/m2
22:15 8.9 °C 7.7 °C 1025.3 hPa Calm   1.6 km/h 92 % 0.0 mm 0 W/m2
22:20 8.7 °C 7.5 °C 1025.3 hPa Calm     92 % 0.0 mm 0 W/m2
22:25 8.4 °C 7.2 °C 1025.3 hPa Calm     92 % 0.0 mm 0 W/m2
22:35 8.1 °C 7.0 °C 1025.3 hPa Calm     93 % 0.0 mm 0 W/m2
22:40 8.0 °C 7.1 °C 1025.3 hPa Calm   1.6 km/h 94 % 0.0 mm 0 W/m2
22:45 8.0 °C 6.9 °C 1025.3 hPa Calm   1.6 km/h 93 % 0.0 mm 0 W/m2
22:50 7.9 °C 7.0 °C 1025.6 hPa Calm     94 % 0.0 mm 0 W/m2
22:55 7.7 °C 6.7 °C 1025.6 hPa Calm     93 % 0.0 mm 0 W/m2
23:00 7.7 °C 6.8 °C 1025.6 hPa Calm     94 % 0.0 mm 0 W/m2
23:05 7.6 °C 6.7 °C 1025.6 hPa Calm     94 % 0.0 mm 0 W/m2
23:10 7.4 °C 6.5 °C 1025.6 hPa Calm   1.6 km/h 94 % 0.0 mm 0 W/m2
23:15 7.4 °C 6.5 °C 1025.6 hPa Calm   1.6 km/h 94 % 0.0 mm 0 W/m2
23:20 7.4 °C 6.5 °C 1025.6 hPa Calm   1.6 km/h 94 % 0.0 mm 0 W/m2
23:25 7.4 °C 6.5 °C 1026.0 hPa Calm   1.6 km/h 94 % 0.0 mm 0 W/m2
23:30 7.6 °C 6.7 °C 1026.0 hPa Calm     94 % 0.0 mm 0 W/m2
23:35 7.7 °C 6.8 °C 1026.0 hPa Calm   1.6 km/h 94 % 0.0 mm 0 W/m2
23:40 7.7 °C 6.8 °C 1025.6 hPa Calm   1.6 km/h 94 % 0.0 mm 0 W/m2
23:45 7.5 °C 6.4 °C 1026.0 hPa Calm   1.6 km/h 93 % 0.0 mm 0 W/m2
23:50 7.2 °C 6.3 °C 1026.0 hPa Calm   1.6 km/h 94 % 0.0 mm 0 W/m2
23:55 7.2 °C 6.3 °C 1026.0 hPa Calm     94 % 0.0 mm 0 W/m2
Avec l'autorisation de Weather Underground - 1.75 mb